createdAt,value
2022-09-28T00:08:20.707Z,7.4
2022-09-28T00:20:20.652Z,7.5
2022-09-28T00:32:20.821Z,7.6
2022-09-28T00:44:20.612Z,7.5
2022-09-28T00:56:20.737Z,7.5
2022-09-28T01:08:21.287Z,7.5
2022-09-28T01:20:20.643Z,7.5
2022-09-28T01:32:20.697Z,7.5
2022-09-28T01:44:20.724Z,7.4
2022-09-28T01:56:21.055Z,7.4
2022-09-28T02:08:21.234Z,7.3
2022-09-28T02:20:20.674Z,7.2
2022-09-28T02:32:20.754Z,7.2
2022-09-28T02:44:20.864Z,7.1
2022-09-28T02:56:20.615Z,7.1
2022-09-28T03:08:20.742Z,7.0
2022-09-28T03:20:21.195Z,7.0
2022-09-28T03:32:20.862Z,6.8
2022-09-28T03:44:21.069Z,6.6
2022-09-28T03:56:21.344Z,6.5
2022-09-28T04:08:21.283Z,6.4
2022-09-28T04:20:21.303Z,6.4
2022-09-28T04:32:20.926Z,6.3
2022-09-28T04:44:21.082Z,6.2
2022-09-28T04:56:20.993Z,6.1
2022-09-28T05:08:21.136Z,6.1
2022-09-28T05:20:20.550Z,6.1
2022-09-28T05:32:21.276Z,6.1
2022-09-28T05:44:21.461Z,6.0
2022-09-28T05:56:21.527Z,6.0
2022-09-28T06:08:20.660Z,6.2
2022-09-28T06:20:21.448Z,6.6
2022-09-28T06:32:21.398Z,6.6
2022-09-28T06:44:21.156Z,6.7
2022-09-28T06:56:20.707Z,6.8
2022-09-28T07:08:20.582Z,6.9
2022-09-28T07:20:20.696Z,7.1
2022-09-28T07:32:21.505Z,7.3
2022-09-28T07:44:21.208Z,7.8
2022-09-28T07:56:21.172Z,8.2
2022-09-28T08:08:21.301Z,8.5
2022-09-28T08:20:21.020Z,8.6
2022-09-28T08:32:20.766Z,8.5
2022-09-28T08:44:21.746Z,8.9
2022-09-28T08:56:20.988Z,8.6
2022-09-28T09:08:21.083Z,9.1
2022-09-28T09:20:21.149Z,9.5
2022-09-28T09:32:21.525Z,9.7
2022-09-28T09:44:20.653Z,9.6
2022-09-28T09:56:21.166Z,10.3
2022-09-28T10:08:21.196Z,9.8
2022-09-28T10:20:20.964Z,9.6
2022-09-28T10:32:21.165Z,10.4
2022-09-28T10:44:20.702Z,10.7
2022-09-28T10:56:21.323Z,10.8
2022-09-28T11:08:20.707Z,10.5
2022-09-28T11:20:24.793Z,10.4
2022-09-28T11:32:20.950Z,10.7
2022-09-28T11:44:20.729Z,10.6
2022-09-28T11:56:20.791Z,10.4
2022-09-28T12:08:20.971Z,10.5
2022-09-28T12:20:20.908Z,10.7
2022-09-28T12:32:20.981Z,11.1
2022-09-28T12:44:20.970Z,10.8
2022-09-28T12:56:21.781Z,10.7
2022-09-28T13:08:21.581Z,11.1
2022-09-28T13:20:21.186Z,11.1
2022-09-28T13:32:20.596Z,11.0
2022-09-28T13:44:21.086Z,10.8
2022-09-28T13:56:20.595Z,10.9
2022-09-28T14:08:20.979Z,11.0
2022-09-28T14:20:21.191Z,11.2
2022-09-28T14:32:21.419Z,11.3
2022-09-28T14:44:20.858Z,11.5
2022-09-28T14:56:20.863Z,11.4
2022-09-28T15:08:20.682Z,11.3
2022-09-28T15:20:20.842Z,11.5
2022-09-28T15:32:21.387Z,11.5
2022-09-28T15:44:20.987Z,11.4
2022-09-28T15:56:20.911Z,11.2
2022-09-28T16:08:20.552Z,11.2
2022-09-28T16:20:20.646Z,11.0
2022-09-28T16:32:21.135Z,10.9
2022-09-28T16:44:20.819Z,10.6
2022-09-28T16:56:21.078Z,10.5
2022-09-28T17:08:21.271Z,10.1
2022-09-28T17:20:20.564Z,9.3
2022-09-28T17:32:20.661Z,8.9
2022-09-28T17:44:21.007Z,8.6
2022-09-28T17:56:20.968Z,8.9
2022-09-28T18:08:21.143Z,9.0
2022-09-28T18:20:21.140Z,8.8
2022-09-28T18:32:21.326Z,8.5
2022-09-28T18:44:20.745Z,8.1
2022-09-28T18:56:21.016Z,7.8
2022-09-28T19:08:24.288Z,7.8
2022-09-28T19:20:20.874Z,7.9
2022-09-28T19:32:20.887Z,7.8
2022-09-28T19:44:20.978Z,7.9
2022-09-28T19:56:21.070Z,7.6
2022-09-28T20:08:21.281Z,7.6
2022-09-28T20:20:20.950Z,7.7
2022-09-28T20:32:20.622Z,7.8
2022-09-28T20:44:20.855Z,7.6
2022-09-28T20:56:20.805Z,7.6
2022-09-28T21:08:20.792Z,7.5
2022-09-28T21:20:20.660Z,7.6
2022-09-28T21:32:20.612Z,7.6
2022-09-28T21:44:20.965Z,7.6
2022-09-28T21:56:20.735Z,7.5
2022-09-28T22:08:21.182Z,7.3
2022-09-28T22:20:20.625Z,7.3
2022-09-28T22:32:20.798Z,7.2
2022-09-28T22:44:20.632Z,7.1
2022-09-28T22:56:21.315Z,6.9
2022-09-28T23:08:21.011Z,6.8
2022-09-28T23:20:20.902Z,6.7
2022-09-28T23:32:20.650Z,6.5
2022-09-28T23:44:21.100Z,6.1
2022-09-28T23:56:21.172Z,6.0
